Time;durP1;ratioP1;P1;durP2;ratioP2;P2;SDS_P1;SDS_P2;PMS_P1;PMS_P2;Temp;Humidity;BMP_temperature;BMP_pressure;BME280_temperature;BME280_humidity;BME280_pressure;Samples;Min_cycle;Max_cycle;Signal;HPM_P1;HPM_P2
2021/01/10 00:00:25;;;;;;;25.10;17.73;;;1.10;99.90;;;;;;4994714;28;20498;-50
2021/01/10 00:02:53;;;;;;;25.07;17.73;;;1.10;99.90;;;;;;4994662;28;20484;-49
2021/01/10 00:05:23;;;;;;;24.43;17.33;;;1.10;99.90;;;;;;5004181;28;20492;-50
2021/01/10 00:07:53;;;;;;;26.53;17.83;;;1.10;99.90;;;;;;5005690;28;20483;-50
2021/01/10 00:10:20;;;;;;;26.47;18.37;;;1.10;99.90;;;;;;5007331;28;20627;-50
2021/01/10 00:12:48;;;;;;;25.67;18.60;;;1.10;99.90;;;;;;5021202;28;20843;-49
2021/01/10 00:15:18;;;;;;;27.40;19.30;;;1.10;99.90;;;;;;5005236;28;20467;-50
2021/01/10 00:17:48;;;;;;;27.33;17.47;;;1.20;99.90;;;;;;5018379;28;20467;-49
2021/01/10 00:20:18;;;;;;;26.43;18.13;;;1.10;99.90;;;;;;5018972;28;20800;-50
2021/01/10 00:22:49;;;;;;;26.03;18.80;;;1.20;99.90;;;;;;5006093;28;21212;-50
2021/01/10 00:25:17;;;;;;;28.90;19.23;;;1.30;99.90;;;;;;5005561;28;20988;-50
2021/01/10 00:27:45;;;;;;;29.73;20.40;;;1.20;99.90;;;;;;5005536;28;20479;-49
2021/01/10 00:30:16;;;;;;;28.37;19.57;;;1.30;99.90;;;;;;5006081;28;20543;-49
2021/01/10 00:32:47;;;;;;;28.23;19.20;;;1.30;99.90;;;;;;5005090;28;20870;-50
2021/01/10 00:35:17;;;;;;;27.10;19.17;;;1.20;99.90;;;;;;5004801;28;20885;-50
2021/01/10 00:37:48;;;;;;;27.37;18.80;;;1.10;99.90;;;;;;5005168;28;20469;-50
2021/01/10 00:40:18;;;;;;;26.03;17.73;;;1.10;99.90;;;;;;5006402;28;20622;-49
2021/01/10 00:42:46;;;;;;;32.23;20.97;;;1.20;99.90;;;;;;5005766;28;20527;-50
2021/01/10 00:45:17;;;;;;;33.33;20.20;;;1.20;99.90;;;;;;5007134;28;20475;-49
2021/01/10 00:47:48;;;;;;;26.00;18.07;;;1.20;99.90;;;;;;5005502;28;20534;-50
2021/01/10 00:50:21;;;;;;;34.60;20.43;;;1.30;99.90;;;;;;5007846;28;20481;-50
2021/01/10 00:52:49;;;;;;;34.60;21.60;;;1.70;99.90;;;;;;5006023;28;20483;-49
2021/01/10 00:55:18;;;;;;;32.03;22.20;;;1.50;99.90;;;;;;5008287;28;20484;-50
2021/01/10 00:57:49;;;;;;;29.23;19.63;;;1.30;99.90;;;;;;5023043;28;20475;-49
2021/01/10 01:00:21;;;;;;;29.47;19.63;;;1.20;99.90;;;;;;5006435;28;20472;-49
2021/01/10 01:02:49;;;;;;;29.97;21.00;;;1.30;99.90;;;;;;5007140;28;20991;-49
2021/01/10 01:05:21;;;;;;;32.93;20.83;;;1.30;99.90;;;;;;5006705;28;20477;-50
2021/01/10 01:07:48;;;;;;;31.30;21.00;;;1.20;99.90;;;;;;5007559;28;20491;-49
2021/01/10 01:10:20;;;;;;;30.73;20.43;;;1.20;99.90;;;;;;5014010;28;20561;-49
2021/01/10 01:12:48;;;;;;;29.57;19.70;;;1.40;99.90;;;;;;5019304;28;20484;-49
2021/01/10 01:15:16;;;;;;;32.43;20.30;;;1.30;99.90;;;;;;5011233;28;20803;-49
2021/01/10 01:17:43;;;;;;;28.63;18.63;;;1.20;99.90;;;;;;5025883;28;20530;-50
2021/01/10 01:20:11;;;;;;;29.93;19.20;;;1.40;99.90;;;;;;5014556;28;20479;-49
2021/01/10 01:22:39;;;;;;;29.70;19.40;;;1.30;99.90;;;;;;5013002;28;21001;-49
2021/01/10 01:25:09;;;;;;;29.03;19.23;;;1.20;99.90;;;;;;5013192;28;20499;-49
2021/01/10 01:27:37;;;;;;;29.90;19.10;;;1.10;99.90;;;;;;5012937;28;20475;-50
2021/01/10 01:30:06;;;;;;;28.27;18.60;;;1.20;99.90;;;;;;5013987;28;20479;-49
2021/01/10 01:32:35;;;;;;;26.67;18.23;;;1.10;99.90;;;;;;5013392;28;20476;-49
2021/01/10 01:35:03;;;;;;;32.13;21.13;;;1.00;99.90;;;;;;5014004;28;21039;-49
2021/01/10 01:37:30;;;;;;;28.27;19.10;;;1.00;99.90;;;;;;5014226;28;20480;-50
2021/01/10 01:39:57;;;;;;;28.90;19.37;;;1.00;99.90;;;;;;5010665;28;20488;-49
2021/01/10 01:42:25;;;;;;;26.53;18.10;;;0.90;99.90;;;;;;5023402;28;20482;-50
2021/01/10 01:44:53;;;;;;;27.70;17.97;;;0.90;99.90;;;;;;5033890;28;20902;-50
2021/01/10 01:47:20;;;;;;;27.13;18.43;;;0.90;99.90;;;;;;5033912;28;21027;-49
2021/01/10 01:49:49;;;;;;;31.27;19.17;;;0.90;99.90;;;;;;5033825;28;20877;-50
2021/01/10 01:52:16;;;;;;;29.40;19.57;;;0.90;99.90;;;;;;5032301;28;20985;-50
2021/01/10 01:54:44;;;;;;;31.90;20.73;;;0.90;99.90;;;;;;5034257;28;20540;-49
2021/01/10 01:57:11;;;;;;;34.53;21.43;;;1.00;99.90;;;;;;5033626;28;20479;-49
2021/01/10 01:59:39;;;;;;;28.63;18.87;;;0.90;99.90;;;;;;5033775;28;20533;-49
2021/01/10 02:02:08;;;;;;;32.07;20.10;;;0.90;99.90;;;;;;5033178;28;20509;-51
2021/01/10 02:04:45;;;;;;;41.93;24.57;;;1.00;99.90;;;;;;5022940;28;20476;-49
2021/01/10 02:07:22;;;;;;;34.13;22.07;;;1.00;99.90;;;;;;5013079;28;20479;-49
2021/01/10 02:09:56;;;;;;;30.23;20.40;;;0.90;99.90;;;;;;5019020;28;20518;-49
2021/01/10 02:12:25;;;;;;;30.20;19.27;;;0.90;99.90;;;;;;5013216;28;20541;-50
2021/01/10 02:14:59;;;;;;;30.00;19.87;;;0.80;99.90;;;;;;5021921;28;20514;-51
2021/01/10 02:17:29;;;;;;;31.97;19.07;;;0.80;99.90;;;;;;5013618;28;20483;-49
2021/01/10 02:20:04;;;;;;;26.37;16.97;;;1.00;99.90;;;;;;5010976;28;20999;-50
2021/01/10 02:22:38;;;;;;;30.60;19.60;;;1.00;99.90;;;;;;5008283;28;20837;-51
2021/01/10 02:25:07;;;;;;;28.53;17.67;;;1.10;99.90;;;;;;5010516;28;20881;-49
2021/01/10 02:27:35;;;;;;;30.67;18.93;;;1.20;99.90;;;;;;5010300;28;20920;-49
2021/01/10 02:30:04;;;;;;;33.97;21.37;;;1.20;99.90;;;;;;5010627;28;20480;-50
2021/01/10 02:32:35;;;;;;;35.47;20.73;;;1.20;99.90;;;;;;5009285;28;20484;-49
2021/01/10 02:35:05;;;;;;;30.50;19.13;;;1.30;99.90;;;;;;5010161;28;21058;-49
2021/01/10 02:37:55;;;;;;;30.07;20.00;;;1.10;99.90;;;;;;5010242;28;20515;-49
2021/01/10 02:40:32;;;;;;;32.73;20.17;;;1.00;99.90;;;;;;5010246;28;20473;-50
2021/01/10 02:43:08;;;;;;;29.93;18.87;;;1.20;99.90;;;;;;5009407;28;20599;-49
2021/01/10 02:45:39;;;;;;;32.63;19.73;;;1.10;99.90;;;;;;5010148;28;20516;-50
2021/01/10 02:48:08;;;;;;;33.40;19.30;;;1.00;99.90;;;;;;5010256;28;20571;-50
2021/01/10 02:50:36;;;;;;;30.63;18.83;;;0.90;99.90;;;;;;5010046;28;20484;-49
2021/01/10 02:53:04;;;;;;;31.23;19.63;;;1.00;99.90;;;;;;5009529;28;20488;-50
2021/01/10 02:55:33;;;;;;;32.97;19.27;;;1.00;99.90;;;;;;5009688;28;20515;-50
2021/01/10 02:58:04;;;;;;;28.13;17.73;;;1.00;99.90;;;;;;5010061;28;20576;-49
2021/01/10 03:00:33;;;;;;;32.60;17.57;;;0.90;99.90;;;;;;5009704;28;20872;-49
2021/01/10 03:03:02;;;;;;;33.30;19.47;;;0.80;99.90;;;;;;5009512;28;20515;-49
2021/01/10 03:05:33;;;;;;;33.33;19.67;;;0.80;99.90;;;;;;5008966;28;21015;-49
2021/01/10 03:08:01;;;;;;;29.80;18.03;;;0.80;99.90;;;;;;5008805;28;20535;-49
2021/01/10 03:10:29;;;;;;;35.70;19.87;;;0.90;99.90;;;;;;5015957;28;20490;-50
2021/01/10 03:12:57;;;;;;;34.50;20.10;;;1.00;99.90;;;;;;5036221;28;20483;-49
2021/01/10 03:15:24;;;;;;;33.73;19.77;;;0.80;99.90;;;;;;5009974;28;20480;-49
2021/01/10 03:17:52;;;;;;;38.97;20.40;;;0.90;99.90;;;;;;5008534;28;20987;-49
2021/01/10 03:20:21;;;;;;;34.43;19.97;;;0.90;99.90;;;;;;5008160;28;20496;-49
2021/01/10 03:22:51;;;;;;;31.70;18.67;;;0.90;99.90;;;;;;4966681;28;20874;-51
2021/01/10 03:25:22;;;;;;;38.60;22.20;;;0.90;99.90;;;;;;4970442;28;20481;-49
2021/01/10 03:27:49;;;;;;;38.17;21.67;;;0.90;99.90;;;;;;4970367;28;20486;-49
2021/01/10 03:30:19;;;;;;;35.43;20.63;;;0.90;99.90;;;;;;4970366;28;20474;-49
2021/01/10 03:32:47;;;;;;;39.77;21.97;;;1.00;99.90;;;;;;4969265;28;20473;-50
2021/01/10 03:35:17;;;;;;;35.13;20.40;;;1.00;99.90;;;;;;4970677;28;20473;-49
2021/01/10 03:37:46;;;;;;;36.77;21.00;;;1.00;99.90;;;;;;4970589;28;20486;-50
2021/01/10 03:40:14;;;;;;;34.63;20.67;;;1.00;99.90;;;;;;4970529;28;20477;-49
2021/01/10 03:42:42;;;;;;;37.37;19.17;;;1.00;99.90;;;;;;4976176;28;20471;-50
2021/01/10 03:45:12;;;;;;;36.27;21.37;;;1.20;99.90;;;;;;4950916;28;20541;-50
2021/01/10 03:47:40;;;;;;;33.80;19.20;;;1.20;99.90;;;;;;4950457;28;20990;-50
2021/01/10 03:50:10;;;;;;;33.70;19.27;;;1.20;99.90;;;;;;4950966;28;20483;-49
2021/01/10 03:52:39;;;;;;;37.97;20.00;;;1.10;99.90;;;;;;4950540;28;20578;-49
2021/01/10 03:55:08;;;;;;;35.20;19.53;;;0.90;99.90;;;;;;4969703;28;20490;-49
2021/01/10 03:57:38;;;;;;;33.77;19.13;;;0.80;99.90;;;;;;4969918;28;20488;-49
2021/01/10 04:00:07;;;;;;;33.37;18.77;;;1.00;99.90;;;;;;4969479;28;20876;-49
2021/01/10 04:02:35;;;;;;;33.77;19.37;;;0.90;99.90;;;;;;4967994;28;21823;-49
2021/01/10 04:05:06;;;;;;;37.97;18.57;;;1.20;99.90;;;;;;4968601;28;21042;-50
2021/01/10 04:07:34;;;;;;;34.57;17.77;;;1.10;99.90;;;;;;4982294;28;20519;-49
2021/01/10 04:10:04;;;;;;;39.60;19.20;;;1.20;99.90;;;;;;4980815;28;20488;-50
2021/01/10 04:12:32;;;;;;;38.47;20.77;;;1.10;99.90;;;;;;4988324;28;20504;-50
2021/01/10 04:15:00;;;;;;;41.10;20.43;;;1.00;99.90;;;;;;4978561;28;20520;-50
2021/01/10 04:17:27;;;;;;;39.27;20.67;;;1.20;99.90;;;;;;4969196;28;21020;-51
2021/01/10 04:19:55;;;;;;;38.23;19.37;;;1.20;99.90;;;;;;4968883;28;20512;-50
2021/01/10 04:22:23;;;;;;;36.40;19.97;;;1.40;99.90;;;;;;5001154;28;20508;-50
2021/01/10 04:24:51;;;;;;;35.00;17.90;;;1.20;99.90;;;;;;5007277;28;20813;-51
2021/01/10 04:27:19;;;;;;;39.13;20.37;;;1.20;99.90;;;;;;5019751;28;21231;-51
2021/01/10 04:29:52;;;;;;;37.70;21.57;;;1.40;99.90;;;;;;5028372;28;20502;-49
2021/01/10 04:32:19;;;;;;;31.90;17.50;;;1.20;99.90;;;;;;5027794;28;20498;-49
2021/01/10 04:34:47;;;;;;;35.47;18.53;;;1.20;99.90;;;;;;5028217;28;20471;-49
2021/01/10 04:37:15;;;;;;;39.47;20.43;;;1.20;99.90;;;;;;5016037;28;20472;-49
2021/01/10 04:39:43;;;;;;;36.07;20.00;;;1.20;99.90;;;;;;5008091;28;20911;-49
2021/01/10 04:42:13;;;;;;;39.13;20.70;;;1.10;99.90;;;;;;5008168;28;20535;-49
2021/01/10 04:44:40;;;;;;;34.50;19.23;;;1.00;99.90;;;;;;5008367;28;20856;-50
2021/01/10 04:47:08;;;;;;;37.37;19.67;;;1.00;99.90;;;;;;5007971;28;20527;-50
2021/01/10 04:49:37;;;;;;;36.73;18.63;;;1.00;99.90;;;;;;5008501;28;20852;-49
2021/01/10 04:52:07;;;;;;;37.77;19.83;;;1.10;99.90;;;;;;5007911;28;20488;-49
2021/01/10 04:54:41;;;;;;;36.47;19.67;;;1.00;99.90;;;;;;5008158;28;20908;-49
2021/01/10 04:57:12;;;;;;;32.83;18.53;;;1.00;99.90;;;;;;5008210;28;21023;-50
2021/01/10 04:59:41;;;;;;;34.43;18.57;;;0.90;99.90;;;;;;5007128;28;20480;-50
2021/01/10 05:02:10;;;;;;;31.57;18.17;;;0.90;99.90;;;;;;5015791;28;20483;-49
2021/01/10 05:04:39;;;;;;;33.60;18.93;;;1.20;99.90;;;;;;5003472;28;20476;-49
2021/01/10 05:07:06;;;;;;;35.30;19.03;;;1.10;99.90;;;;;;5010780;28;20484;-49
2021/01/10 05:09:37;;;;;;;31.90;17.97;;;1.10;99.90;;;;;;5016778;28;20562;-49
2021/01/10 05:12:05;;;;;;;34.97;18.70;;;1.00;99.90;;;;;;5007936;28;20474;-49
2021/01/10 05:14:33;;;;;;;37.70;18.87;;;1.00;99.90;;;;;;5005284;28;21046;-49
2021/01/10 05:17:03;;;;;;;34.73;18.70;;;1.00;99.90;;;;;;5006068;28;20568;-50
2021/01/10 05:19:31;;;;;;;39.13;19.47;;;0.90;99.90;;;;;;5007549;28;20487;-49
2021/01/10 05:22:05;;;;;;;34.73;18.13;;;0.90;99.90;;;;;;5007816;28;20487;-49
2021/01/10 05:24:32;;;;;;;34.20;18.53;;;1.10;99.90;;;;;;5007961;28;20480;-49
2021/01/10 05:27:00;;;;;;;38.57;18.43;;;1.00;99.90;;;;;;5007663;28;20484;-50
2021/01/10 05:29:27;;;;;;;35.23;18.53;;;1.00;99.90;;;;;;5007546;28;20480;-49
2021/01/10 05:31:55;;;;;;;35.27;19.07;;;0.90;99.90;;;;;;5007383;28;20899;-49
2021/01/10 05:34:24;;;;;;;36.90;19.20;;;0.90;99.90;;;;;;5007820;28;20480;-49
2021/01/10 05:36:52;;;;;;;39.73;19.97;;;0.90;99.90;;;;;;5007883;28;20875;-51
2021/01/10 05:39:21;;;;;;;48.30;22.87;;;0.90;99.90;;;;;;5008123;28;20488;-49
2021/01/10 05:41:54;;;;;;;42.67;21.07;;;1.00;99.90;;;;;;5007677;28;20480;-50
2021/01/10 05:44:23;;;;;;;44.87;23.20;;;0.90;99.90;;;;;;5006413;28;20532;-49
2021/01/10 05:47:04;;;;;;;40.77;21.43;;;1.00;99.90;;;;;;5010987;28;20484;-49
2021/01/10 05:49:32;;;;;;;38.83;21.17;;;0.90;99.90;;;;;;4988194;28;20488;-49
2021/01/10 05:52:08;;;;;;;43.47;20.90;;;1.10;99.90;;;;;;4988263;28;20485;-49
2021/01/10 05:54:36;;;;;;;44.07;20.80;;;1.00;99.90;;;;;;4990474;28;20579;-50
2021/01/10 05:57:06;;;;;;;42.93;20.83;;;1.00;99.90;;;;;;5022072;28;20537;-49
2021/01/10 05:59:36;;;;;;;48.20;22.23;;;1.10;99.90;;;;;;5013757;28;20473;-49
2021/01/10 06:02:06;;;;;;;44.43;22.23;;;1.00;99.90;;;;;;5018152;28;20483;-49
2021/01/10 06:04:34;;;;;;;44.53;22.20;;;1.00;99.90;;;;;;5019235;28;21075;-49
2021/01/10 06:07:03;;;;;;;45.37;20.30;;;1.00;99.90;;;;;;5029112;28;20483;-49
2021/01/10 06:09:45;;;;;;;47.40;22.47;;;1.00;99.90;;;;;;5030899;28;20517;-49
2021/01/10 06:12:23;;;;;;;47.63;23.03;;;0.90;99.90;;;;;;5016442;28;20472;-50
2021/01/10 06:14:51;;;;;;;44.63;20.47;;;1.00;99.90;;;;;;5004005;28;20468;-49
2021/01/10 06:17:20;;;;;;;49.67;22.87;;;0.90;99.90;;;;;;5008490;28;20522;-50
2021/01/10 06:19:50;;;;;;;47.47;24.23;;;0.90;99.90;;;;;;5010313;28;20483;-49
2021/01/10 06:22:17;;;;;;;45.20;21.90;;;0.80;99.90;;;;;;5010075;28;20504;-49
2021/01/10 06:24:47;;;;;;;43.33;21.67;;;0.80;99.90;;;;;;5010291;28;21171;-49
2021/01/10 06:27:22;;;;;;;49.80;23.73;;;1.00;99.90;;;;;;5010657;28;20480;-49
2021/01/10 06:29:55;;;;;;;46.17;19.17;;;0.90;99.90;;;;;;5010074;28;20471;-50
2021/01/10 06:32:25;;;;;;;48.47;24.20;;;1.20;99.90;;;;;;5009639;28;20488;-49
2021/01/10 06:34:54;;;;;;;49.23;24.33;;;1.00;99.90;;;;;;5010311;28;20484;-49
2021/01/10 06:37:21;;;;;;;47.60;23.80;;;1.10;99.90;;;;;;5010256;28;20485;-50
2021/01/10 06:39:49;;;;;;;44.83;22.77;;;0.90;99.90;;;;;;5010302;28;20879;-49
2021/01/10 06:42:17;;;;;;;43.50;22.27;;;0.90;99.90;;;;;;5009379;28;20481;-49
2021/01/10 06:44:51;;;;;;;44.37;22.80;;;0.90;99.90;;;;;;5009074;28;20923;-49
2021/01/10 06:47:24;;;;;;;40.57;21.73;;;0.90;99.90;;;;;;5008204;28;20472;-49
2021/01/10 06:49:53;;;;;;;44.10;21.43;;;0.90;99.90;;;;;;5008683;28;20495;-49
2021/01/10 06:52:24;;;;;;;43.53;22.50;;;0.90;99.90;;;;;;5008441;28;20476;-49
2021/01/10 06:54:53;;;;;;;42.27;22.17;;;0.90;99.90;;;;;;5008032;28;20480;-49
2021/01/10 06:57:20;;;;;;;41.23;21.30;;;0.90;99.90;;;;;;5013747;28;20479;-49
2021/01/10 07:00:02;;;;;;;37.13;20.43;;;0.90;99.90;;;;;;5014432;28;20479;-49
2021/01/10 07:02:31;;;;;;;36.77;20.10;;;0.90;99.90;;;;;;5019224;28;20485;-50
2021/01/10 07:05:03;;;;;;;36.90;20.83;;;0.90;99.90;;;;;;5028013;28;20486;-49
2021/01/10 07:07:48;;;;;;;40.43;21.47;;;0.90;99.90;;;;;;5011177;28;20479;-49
2021/01/10 07:10:27;;;;;;;37.77;20.60;;;0.90;99.90;;;;;;4990830;28;20526;-49
2021/01/10 07:12:54;;;;;;;35.13;19.93;;;0.90;99.90;;;;;;5007462;28;21097;-49
2021/01/10 07:15:29;;;;;;;35.60;19.27;;;0.90;99.90;;;;;;5009247;28;20504;-49
2021/01/10 07:18:09;;;;;;;37.90;21.03;;;0.90;99.90;;;;;;5008870;28;20472;-49
2021/01/10 07:20:46;;;;;;;37.27;21.07;;;0.90;99.90;;;;;;5008888;28;20507;-49
2021/01/10 07:23:33;;;;;;;36.93;20.07;;;0.90;99.90;;;;;;5008235;28;20488;-49
2021/01/10 07:26:01;;;;;;;35.93;20.63;;;0.90;99.90;;;;;;5007367;28;20484;-49
2021/01/10 07:28:41;;;;;;;37.67;20.17;;;1.00;99.90;;;;;;5008067;28;20955;-50
2021/01/10 07:31:18;;;;;;;32.80;17.83;;;0.90;99.90;;;;;;5008085;28;20564;-49
2021/01/10 07:34:11;;;;;;;37.38;19.73;;;1.00;99.90;;;;;;3964149;28;10002010;-49
2021/01/10 07:36:50;;;;;;;32.30;19.43;;;0.90;99.90;;;;;;4139756;28;10002098;-49
2021/01/10 07:39:19;;;;;;;32.80;18.07;;;0.90;99.90;;;;;;5012269;28;20565;-49
2021/01/10 07:41:47;;;;;;;34.43;18.20;;;0.90;99.90;;;;;;5016843;28;20492;-49
2021/01/10 07:44:17;;;;;;;37.07;20.37;;;0.90;99.90;;;;;;5002873;28;20465;-49
2021/01/10 07:46:57;;;;;;;38.57;20.87;;;0.90;99.90;;;;;;5006216;28;20741;-49
2021/01/10 07:49:46;;;;;;;36.70;20.10;;;0.80;99.90;;;;;;4989783;28;20547;-49
2021/01/10 07:52:13;;;;;;;37.20;19.57;;;0.80;99.90;;;;;;5009431;28;20467;-49
2021/01/10 07:54:53;;;;;;;38.47;20.07;;;0.80;99.90;;;;;;5013036;28;20976;-49
2021/01/10 07:57:29;;;;;;;35.47;19.83;;;0.80;99.90;;;;;;5007367;28;20531;-49
2021/01/10 08:00:16;;;;;;;33.10;18.90;;;0.80;99.90;;;;;;5007456;28;20484;-49
2021/01/10 08:02:48;;;;;;;37.47;19.30;;;0.80;99.90;;;;;;5002340;28;21602;-50
2021/01/10 08:05:18;;;;;;;35.87;20.37;;;0.80;99.90;;;;;;5009337;28;20559;-49
2021/01/10 08:07:51;;;;;;;32.80;18.93;;;0.80;99.90;;;;;;5002814;28;20484;-50
2021/01/10 08:10:19;;;;;;;37.20;19.67;;;0.80;99.90;;;;;;5007842;28;20852;-49
2021/01/10 08:12:47;;;;;;;35.83;20.63;;;0.80;99.90;;;;;;5008067;28;20484;-49
2021/01/10 08:15:17;;;;;;;38.77;20.97;;;0.90;99.90;;;;;;4989524;28;20539;-49
2021/01/10 08:17:46;;;;;;;35.60;20.03;;;1.00;99.90;;;;;;5002106;28;20484;-49
2021/01/10 08:20:15;;;;;;;38.83;21.53;;;1.00;99.90;;;;;;5008638;28;20556;-49
2021/01/10 08:51:39;;;;;;;40.50;22.13;;;1.40;99.90;;;;;;4992720;28;20482;-50
2021/01/10 08:54:10;;;;;;;44.23;23.67;;;1.40;99.90;;;;;;4992724;28;21019;-51
2021/01/10 08:56:39;;;;;;;43.47;23.60;;;1.40;99.90;;;;;;4996039;28;20620;-51
2021/01/10 08:59:08;;;;;;;38.80;22.27;;;1.40;99.90;;;;;;4996365;28;20515;-50
2021/01/10 09:01:37;;;;;;;43.60;23.50;;;1.40;99.90;;;;;;4994574;28;20493;-50
2021/01/10 09:04:08;;;;;;;40.73;23.03;;;1.40;99.90;;;;;;4991794;28;20587;-50
2021/01/10 09:06:57;;;;;;;42.87;23.40;;;1.50;99.90;;;;;;4994645;28;20491;-52
2021/01/10 09:09:40;;;;;;;46.37;25.13;;;1.50;99.90;;;;;;4988992;28;20527;-51
2021/01/10 09:12:20;;;;;;;42.77;23.77;;;1.50;99.90;;;;;;4990513;28;20542;-51
2021/01/10 09:14:54;;;;;;;44.93;24.27;;;1.60;99.90;;;;;;4992155;28;20483;-50
2021/01/10 09:17:29;;;;;;;40.70;22.10;;;1.60;99.90;;;;;;4994259;28;20897;-50
2021/01/10 09:20:08;;;;;;;46.87;23.80;;;1.60;99.90;;;;;;4993124;28;21061;-50
2021/01/10 09:22:38;;;;;;;46.33;23.37;;;1.60;99.90;;;;;;4992503;28;21037;-51
2021/01/10 09:25:15;;;;;;;44.17;23.00;;;1.70;99.90;;;;;;4993713;28;20516;-51
2021/01/10 09:28:10;;;;;;;46.50;23.90;;;1.70;99.90;;;;;;4994035;28;20488;-51
2021/01/10 09:30:42;;;;;;;43.60;23.83;;;1.70;99.90;;;;;;4995548;28;20499;-50
2021/01/10 09:33:12;;;;;;;45.03;23.53;;;1.80;99.90;;;;;;4996361;28;20639;-50
2021/01/10 09:35:43;;;;;;;46.13;23.60;;;2.00;99.90;;;;;;4997999;28;20488;-50
2021/01/10 09:38:14;;;;;;;44.80;23.60;;;2.10;99.90;;;;;;4998171;28;20563;-51
2021/01/10 09:41:04;;;;;;;40.07;21.53;;;2.20;99.90;;;;;;4998289;28;20789;-51
2021/01/10 09:43:45;;;;;;;39.90;22.03;;;2.40;99.90;;;;;;4995144;28;20491;-50
2021/01/10 09:46:28;;;;;;;39.83;21.70;;;2.40;99.90;;;;;;4997308;28;20952;-54
2021/01/10 09:48:59;;;;;;;40.27;21.50;;;2.40;99.90;;;;;;4998777;28;20510;-50
2021/01/10 09:51:38;;;;;;;39.27;20.93;;;2.30;99.90;;;;;;4997736;28;20488;-54
2021/01/10 09:54:16;;;;;;;39.80;21.37;;;2.30;99.90;;;;;;4997049;28;20614;-51
2021/01/10 09:56:46;;;;;;;37.23;21.37;;;2.30;99.90;;;;;;4998828;28;20567;-51
2021/01/10 09:59:38;;;;;;;37.47;21.70;;;2.30;99.90;;;;;;5000020;28;20510;-50
2021/01/10 10:02:19;;;;;;;38.13;21.07;;;2.30;99.90;;;;;;4998050;28;20752;-51
2021/01/10 10:04:49;;;;;;;39.10;20.80;;;2.30;99.90;;;;;;4996364;28;20554;-50
2021/01/10 10:07:32;;;;;;;39.00;21.23;;;2.40;99.90;;;;;;4999753;28;20496;-50
2021/01/10 10:10:05;;;;;;;37.37;20.30;;;2.40;99.90;;;;;;4999606;28;20530;-50
2021/01/10 10:12:37;;;;;;;36.90;20.97;;;2.40;99.90;;;;;;4997054;28;20816;-52
2021/01/10 10:15:09;;;;;;;38.13;21.17;;;2.40;99.90;;;;;;4998660;28;20849;-50
2021/01/10 10:17:38;;;;;;;39.40;21.63;;;2.40;99.90;;;;;;4999394;28;20529;-51
2021/01/10 10:20:09;;;;;;;37.07;21.60;;;2.40;99.90;;;;;;5000171;28;20721;-51
2021/01/10 10:22:39;;;;;;;35.70;20.93;;;2.40;99.90;;;;;;4997555;28;20466;-53
2021/01/10 10:25:12;;;;;;;36.17;20.47;;;2.40;99.90;;;;;;4998838;28;20905;-50
2021/01/10 10:27:57;;;;;;;35.13;20.83;;;2.40;99.90;;;;;;4998812;28;20496;-51
2021/01/10 10:30:26;;;;;;;35.60;21.20;;;2.40;99.90;;;;;;4999216;28;20560;-50
2021/01/10 10:32:56;;;;;;;40.63;23.63;;;2.40;99.90;;;;;;4996675;28;20489;-50
2021/01/10 10:35:24;;;;;;;45.13;24.37;;;2.50;99.90;;;;;;4998962;28;20473;-50
2021/01/10 10:37:53;;;;;;;39.70;22.50;;;2.60;99.90;;;;;;4998485;28;20477;-51
2021/01/10 10:40:23;;;;;;;40.00;22.17;;;2.50;99.90;;;;;;4998362;28;20473;-50
2021/01/10 10:42:52;;;;;;;38.17;22.30;;;2.60;99.90;;;;;;4996466;28;20595;-50
2021/01/10 10:45:20;;;;;;;37.77;23.53;;;2.60;99.90;;;;;;4998617;28;20476;-52
2021/01/10 10:47:48;;;;;;;42.77;25.60;;;2.70;99.90;;;;;;4997472;28;20854;-51
2021/01/10 10:50:19;;;;;;;42.93;24.90;;;2.60;99.90;;;;;;4998896;28;20485;-50
2021/01/10 10:52:48;;;;;;;39.70;23.33;;;2.70;99.90;;;;;;4996726;28;20485;-51
2021/01/10 10:55:18;;;;;;;39.13;21.83;;;2.70;99.90;;;;;;4998335;28;20496;-51
2021/01/10 10:57:47;;;;;;;38.83;21.97;;;2.80;99.90;;;;;;4997413;28;21011;-51
2021/01/10 11:00:16;;;;;;;38.00;22.67;;;2.80;99.90;;;;;;4998647;28;21020;-51
2021/01/10 11:02:49;;;;;;;40.70;22.83;;;2.80;99.90;;;;;;4995201;28;20487;-50
2021/01/10 11:05:19;;;;;;;37.73;20.73;;;2.80;99.90;;;;;;4998466;28;20493;-50
2021/01/10 11:07:51;;;;;;;36.57;21.07;;;2.80;99.90;;;;;;4998595;28;20496;-50
2021/01/10 11:10:21;;;;;;;36.57;21.07;;;2.80;99.90;;;;;;4997991;28;20888;-50
2021/01/10 11:12:49;;;;;;;34.30;20.07;;;2.80;99.90;;;;;;4995436;28;20488;-50
2021/01/10 11:15:18;;;;;;;37.53;21.13;;;2.80;99.90;;;;;;4998556;28;20527;-50
2021/01/10 11:17:48;;;;;;;37.97;22.10;;;2.90;99.90;;;;;;4996945;28;22968;-50
2021/01/10 11:20:17;;;;;;;35.57;21.97;;;3.00;99.90;;;;;;4998061;28;21048;-50
2021/01/10 11:23:02;;;;;;;37.93;21.07;;;3.00;99.90;;;;;;4995701;28;20570;-50
2021/01/10 11:25:30;;;;;;;37.87;21.73;;;3.10;99.90;;;;;;4997994;28;20491;-52
2021/01/10 11:27:58;;;;;;;35.17;20.97;;;3.10;99.90;;;;;;4997693;28;20495;-50
2021/01/10 11:30:27;;;;;;;41.87;22.60;;;3.10;99.90;;;;;;4998426;28;20520;-50
2021/01/10 11:32:54;;;;;;;38.97;22.53;;;3.10;99.90;;;;;;4995664;28;20520;-51
2021/01/10 11:35:23;;;;;;;38.63;22.20;;;3.20;99.90;;;;;;4998624;28;20568;-53
2021/01/10 11:37:54;;;;;;;37.13;21.60;;;3.40;99.90;;;;;;4998270;28;20922;-51
2021/01/10 11:40:22;;;;;;;40.00;23.27;;;3.40;99.90;;;;;;4997665;28;20966;-51
2021/01/10 11:42:51;;;;;;;36.90;21.10;;;3.50;99.90;;;;;;4995325;28;20539;-51
2021/01/10 11:45:21;;;;;;;35.77;22.97;;;3.60;99.90;;;;;;4998114;28;21246;-51
2021/01/10 11:47:50;;;;;;;40.77;23.70;;;3.50;99.90;;;;;;4997797;28;20476;-51
2021/01/10 11:50:20;;;;;;;38.00;24.23;;;3.50;99.90;;;;;;4997938;28;20489;-50
2021/01/10 11:52:48;;;;;;;42.17;24.33;;;3.50;99.90;;;;;;4994901;28;20919;-51
2021/01/10 11:55:16;;;;;;;38.90;23.60;;;3.40;99.90;;;;;;4996862;28;20492;-50
2021/01/10 11:57:44;;;;;;;41.10;23.90;;;3.40;99.90;;;;;;4997268;28;20883;-50
2021/01/10 12:00:14;;;;;;;37.00;22.60;;;3.40;99.90;;;;;;4997311;28;21281;-51
2021/01/10 12:02:43;;;;;;;40.07;24.17;;;3.40;99.90;;;;;;4995416;28;20801;-50
2021/01/10 12:05:13;;;;;;;39.53;25.33;;;3.40;99.90;;;;;;4996717;28;20489;-50
2021/01/10 12:07:42;;;;;;;40.27;24.57;;;3.50;99.90;;;;;;4997585;28;20488;-52
2021/01/10 12:10:11;;;;;;;42.67;25.57;;;3.70;99.90;;;;;;4998057;28;21020;-51
2021/01/10 12:12:39;;;;;;;44.93;26.77;;;3.80;99.90;;;;;;4994884;28;20607;-50
2021/01/10 12:15:09;;;;;;;38.00;24.30;;;3.90;99.90;;;;;;4997768;28;20488;-51
2021/01/10 12:17:38;;;;;;;37.73;25.47;;;3.90;99.90;;;;;;4996849;28;20503;-53
2021/01/10 12:20:09;;;;;;;42.67;25.23;;;4.00;99.90;;;;;;4996492;28;20490;-51
2021/01/10 12:22:36;;;;;;;40.43;25.23;;;4.00;99.90;;;;;;4992191;28;20877;-53
2021/01/10 12:25:07;;;;;;;39.80;24.87;;;4.10;99.90;;;;;;4996112;28;20577;-51
2021/01/10 12:27:35;;;;;;;35.87;24.37;;;4.10;99.90;;;;;;4996378;28;20497;-50
2021/01/10 12:30:06;;;;;;;40.17;24.43;;;4.10;99.90;;;;;;4996665;28;20488;-50
2021/01/10 12:32:37;;;;;;;34.50;24.10;;;4.10;99.90;;;;;;4993343;28;20525;-51
2021/01/10 12:35:10;;;;;;;37.20;24.10;;;4.00;99.90;;;;;;4996257;28;20598;-51
2021/01/10 12:37:39;;;;;;;34.10;23.03;;;4.00;99.90;;;;;;4995434;28;20478;-50
2021/01/10 12:40:10;;;;;;;38.37;23.53;;;4.00;99.90;;;;;;4995252;28;20481;-51
2021/01/10 12:42:40;;;;;;;36.13;24.90;;;4.10;99.90;;;;;;4992484;28;20566;-51
2021/01/10 12:45:11;;;;;;;38.00;25.03;;;4.10;99.90;;;;;;4993952;28;20989;-52
2021/01/10 12:47:42;;;;;;;35.97;24.63;;;4.10;99.90;;;;;;4995183;28;21049;-52
2021/01/10 12:50:13;;;;;;;35.67;24.27;;;4.10;99.90;;;;;;4994327;28;20475;-50
2021/01/10 12:52:42;;;;;;;32.17;22.20;;;4.10;99.90;;;;;;4993048;28;20488;-50
2021/01/10 12:55:12;;;;;;;36.47;23.33;;;4.10;99.90;;;;;;4994917;28;20919;-50
2021/01/10 12:57:40;;;;;;;31.03;21.80;;;4.10;99.90;;;;;;4994876;28;20560;-50
2021/01/10 13:00:12;;;;;;;32.70;20.10;;;4.10;99.90;;;;;;4995827;28;20876;-53
2021/01/10 13:02:40;;;;;;;29.87;20.33;;;4.00;99.90;;;;;;4992879;28;20487;-53
2021/01/10 13:05:11;;;;;;;31.00;19.47;;;4.10;99.90;;;;;;4994894;28;20484;-51
2021/01/10 13:07:51;;;;;;;25.57;17.80;;;4.10;99.90;;;;;;4995251;28;21097;-50
2021/01/10 13:10:22;;;;;;;29.13;18.77;;;4.10;99.90;;;;;;4995085;28;21123;-51
2021/01/10 13:12:50;;;;;;;27.67;17.53;;;4.00;99.90;;;;;;4992734;28;20495;-51
2021/01/10 13:15:18;;;;;;;26.70;17.27;;;4.00;99.90;;;;;;4994976;28;20545;-51
2021/01/10 13:17:51;;;;;;;27.13;16.47;;;4.10;99.90;;;;;;4994245;28;20511;-50
2021/01/10 13:20:23;;;;;;;26.20;16.20;;;4.10;99.90;;;;;;4994288;28;20567;-50
2021/01/10 13:22:52;;;;;;;32.77;16.70;;;4.10;99.90;;;;;;4992865;28;20564;-52